createdAt,value
2022-08-25T00:00:11.263Z,2.42
2022-08-25T00:02:37.950Z,1.77
2022-08-25T00:05:05.221Z,2.05
2022-08-25T00:07:33.309Z,2.22
2022-08-25T00:09:59.887Z,2.25
2022-08-25T00:12:26.583Z,2.15
2022-08-25T00:14:53.188Z,2.38
2022-08-25T00:17:19.884Z,1.95
2022-08-25T00:19:46.494Z,1.92
2022-08-25T00:22:13.152Z,2.08
2022-08-25T00:24:39.802Z,2.15
2022-08-25T00:27:06.453Z,2.28
2022-08-25T00:29:33.360Z,2.05
2022-08-25T00:32:00.419Z,1.90
2022-08-25T00:34:30.752Z,1.98
2022-08-25T00:36:57.443Z,2.10
2022-08-25T00:39:24.208Z,2.40
2022-08-25T00:41:51.853Z,2.25
2022-08-25T00:44:18.669Z,2.22
2022-08-25T00:46:55.933Z,2.35
2022-08-25T00:49:41.146Z,2.30
2022-08-25T00:52:10.538Z,2.50
2022-08-25T00:54:54.413Z,2.42
2022-08-25T00:57:34.540Z,2.33
2022-08-25T01:00:04.829Z,2.58
2022-08-25T01:02:31.798Z,2.00
2022-08-25T01:04:59.015Z,2.40
2022-08-25T01:07:25.698Z,2.42
2022-08-25T01:09:52.420Z,1.77
2022-08-25T01:12:19.360Z,2.08
2022-08-25T01:14:46.088Z,2.33
2022-08-25T01:17:13.333Z,2.20
2022-08-25T01:19:40.666Z,2.17
2022-08-25T01:22:07.535Z,2.40
2022-08-25T01:24:56.829Z,2.30
2022-08-25T01:27:23.520Z,2.22
2022-08-25T01:29:50.173Z,2.50
2022-08-25T01:32:17.603Z,2.10
2022-08-25T01:34:45.024Z,2.20
2022-08-25T01:37:13.251Z,2.28
2022-08-25T01:39:40.573Z,2.40
2022-08-25T01:42:07.153Z,2.42
2022-08-25T01:44:36.472Z,2.15
2022-08-25T01:47:04.046Z,2.33
2022-08-25T01:49:30.777Z,2.03
2022-08-25T01:52:12.364Z,2.17
2022-08-25T01:54:39.117Z,2.22
2022-08-25T01:57:05.972Z,2.05
2022-08-25T01:59:32.694Z,2.60
2022-08-25T02:02:00.175Z,2.58
2022-08-25T02:04:28.000Z,2.35
2022-08-25T02:06:54.677Z,2.20
2022-08-25T02:09:21.321Z,2.60
2022-08-25T02:11:48.009Z,2.28
2022-08-25T02:14:15.068Z,2.35
2022-08-25T02:16:42.279Z,2.42
2022-08-25T02:19:10.105Z,2.40
2022-08-25T02:21:36.791Z,2.63
2022-08-25T02:24:03.988Z,2.60
2022-08-25T02:26:31.020Z,2.40
2022-08-25T02:28:57.692Z,2.53
2022-08-25T02:31:24.879Z,2.67
2022-08-25T02:33:52.022Z,2.60
2022-08-25T02:36:18.845Z,2.25
2022-08-25T02:38:45.583Z,2.47
2022-08-25T02:41:14.552Z,2.45
2022-08-25T02:43:41.680Z,2.50
2022-08-25T02:46:09.046Z,2.50
2022-08-25T02:48:36.500Z,2.42
2022-08-25T02:51:03.824Z,2.50
2022-08-25T02:53:31.134Z,2.67
2022-08-25T02:55:57.839Z,2.35
2022-08-25T02:58:24.521Z,2.40
2022-08-25T03:00:51.363Z,2.45
2022-08-25T03:03:18.048Z,2.53
2022-08-25T03:05:44.824Z,2.42
2022-08-25T03:08:11.458Z,2.47
2022-08-25T03:10:38.413Z,2.10
2022-08-25T03:13:05.154Z,2.50
2022-08-25T03:15:32.276Z,2.45
2022-08-25T03:17:59.980Z,2.42
2022-08-25T03:20:26.762Z,2.42
2022-08-25T03:22:53.714Z,2.55
2022-08-25T03:25:24.006Z,2.60
2022-08-25T03:27:51.316Z,2.40
2022-08-25T03:30:18.180Z,2.60
2022-08-25T03:32:44.753Z,2.17
2022-08-25T03:35:11.488Z,2.85
2022-08-25T03:37:38.213Z,2.38
2022-08-25T03:40:06.315Z,2.30
2022-08-25T03:42:32.996Z,2.50
2022-08-25T03:44:59.739Z,2.45
2022-08-25T03:47:26.492Z,2.67
2022-08-25T03:49:53.098Z,2.58
2022-08-25T03:52:19.732Z,2.60
2022-08-25T03:54:46.432Z,2.45
2022-08-25T03:57:13.012Z,2.95
2022-08-25T03:59:39.916Z,2.42
2022-08-25T04:02:08.467Z,2.58
2022-08-25T04:04:35.161Z,3.05
2022-08-25T04:07:01.869Z,2.50
2022-08-25T04:09:28.605Z,2.85
2022-08-25T04:11:57.744Z,2.75
2022-08-25T04:14:24.569Z,2.53
2022-08-25T04:16:51.321Z,2.40
2022-08-25T04:19:18.100Z,2.42
2022-08-25T04:21:44.858Z,2.78
2022-08-25T04:24:11.793Z,2.30
2022-08-25T04:26:40.792Z,2.75
2022-08-25T04:29:07.798Z,2.75
2022-08-25T04:31:34.575Z,2.75
2022-08-25T04:34:02.577Z,3.03
2022-08-25T04:36:29.252Z,2.67
2022-08-25T04:38:55.970Z,2.85
2022-08-25T04:41:23.206Z,2.88
2022-08-25T04:43:50.054Z,2.47
2022-08-25T04:46:21.973Z,2.65
2022-08-25T04:48:49.346Z,2.47
2022-08-25T04:51:20.751Z,2.58
2022-08-25T04:53:47.705Z,2.63
2022-08-25T04:56:15.416Z,2.72
2022-08-25T04:58:42.291Z,2.63
2022-08-25T05:01:14.091Z,2.38
2022-08-25T05:03:40.967Z,2.65
2022-08-25T05:06:07.750Z,2.70
2022-08-25T05:08:34.694Z,2.67
2022-08-25T05:11:11.314Z,2.55
2022-08-25T05:13:39.864Z,2.85
2022-08-25T05:16:09.922Z,2.45
2022-08-25T05:18:38.728Z,2.67
2022-08-25T05:21:07.913Z,3.10
2022-08-25T05:23:34.707Z,2.90
2022-08-25T05:26:06.106Z,3.10
2022-08-25T05:28:33.318Z,3.03
2022-08-25T05:31:00.893Z,2.53
2022-08-25T05:33:27.694Z,2.97
2022-08-25T05:35:58.803Z,2.38
2022-08-25T05:38:25.648Z,2.80
2022-08-25T05:40:56.686Z,2.97
2022-08-25T05:43:24.589Z,2.90
2022-08-25T05:45:54.149Z,2.92
2022-08-25T05:48:20.835Z,3.33
2022-08-25T05:50:54.490Z,2.85
2022-08-25T05:53:21.655Z,3.03
2022-08-25T05:55:48.313Z,3.00
2022-08-25T05:58:15.030Z,3.67
2022-08-25T06:00:43.363Z,3.15
2022-08-25T06:03:10.258Z,3.03
2022-08-25T06:05:36.939Z,2.92
2022-08-25T06:08:03.703Z,3.60
2022-08-25T06:10:30.410Z,2.90
2022-08-25T06:12:56.996Z,2.53
2022-08-25T06:15:25.228Z,2.47
2022-08-25T06:17:56.765Z,2.58
2022-08-25T06:20:27.774Z,2.85
2022-08-25T06:22:54.407Z,2.88
2022-08-25T06:25:22.272Z,3.05
2022-08-25T06:27:49.030Z,2.78
2022-08-25T06:30:21.293Z,2.80
2022-08-25T06:35:19.242Z,2.42
2022-08-25T06:37:47.046Z,2.83
2022-08-25T06:40:14.029Z,2.88
2022-08-25T06:42:41.065Z,2.92
2022-08-25T06:45:08.252Z,3.70
2022-08-25T06:47:34.936Z,3.13
2022-08-25T06:50:01.867Z,3.83
2022-08-25T06:52:29.254Z,4.13
2022-08-25T06:54:56.312Z,4.03
2022-08-25T06:57:22.979Z,3.80
2022-08-25T06:59:49.709Z,3.78
2022-08-25T07:02:21.882Z,4.10
2022-08-25T07:04:48.925Z,3.55
2022-08-25T07:07:15.569Z,3.85
2022-08-25T07:09:42.319Z,3.90
2022-08-25T07:12:08.989Z,3.03
2022-08-25T07:14:35.689Z,4.00
2022-08-25T07:17:03.473Z,4.28
2022-08-25T07:19:38.828Z,3.45
2022-08-25T07:22:07.655Z,3.70
2022-08-25T07:24:36.197Z,4.30
2022-08-25T07:27:02.900Z,3.80
2022-08-25T07:29:32.911Z,3.97
2022-08-25T07:32:02.945Z,4.00
2022-08-25T07:34:29.673Z,4.22
2022-08-25T07:36:56.505Z,4.10
2022-08-25T07:39:23.568Z,3.83
2022-08-25T07:41:51.955Z,4.72
2022-08-25T07:44:20.014Z,4.70
2022-08-25T07:46:46.745Z,4.38
2022-08-25T07:49:16.623Z,4.30
2022-08-25T07:52:05.564Z,4.20
2022-08-25T07:54:34.273Z,4.25
2022-08-25T07:57:05.040Z,4.13
2022-08-25T07:59:39.261Z,4.40
2022-08-25T08:02:17.742Z,3.78
2022-08-25T08:04:45.608Z,4.13
2022-08-25T08:07:12.344Z,3.95
2022-08-25T08:09:39.167Z,3.90
2022-08-25T08:12:06.616Z,4.35
2022-08-25T08:14:34.409Z,4.57
2022-08-25T08:17:05.884Z,4.13
2022-08-25T08:19:32.465Z,4.65
2022-08-25T08:22:02.277Z,5.25
2022-08-25T08:24:44.205Z,4.47
2022-08-25T08:27:17.425Z,4.25
2022-08-25T08:29:45.543Z,4.45
2022-08-25T08:32:12.877Z,3.88
2022-08-25T08:34:42.314Z,4.93
2022-08-25T08:37:10.903Z,4.68
2022-08-25T08:39:38.120Z,4.28
2022-08-25T08:42:29.297Z,4.53
2022-08-25T08:45:05.151Z,4.57
2022-08-25T08:47:47.909Z,4.07
2022-08-25T08:50:33.568Z,4.38
2022-08-25T08:53:10.759Z,4.72
2022-08-25T08:55:40.704Z,4.20
2022-08-25T08:58:11.634Z,4.07
2022-08-25T09:00:52.323Z,4.30
2022-08-25T09:03:35.940Z,4.38
2022-08-25T09:06:11.895Z,5.20
2022-08-25T09:08:38.674Z,4.35
2022-08-25T09:11:26.960Z,4.53
2022-08-25T09:14:22.432Z,4.75
2022-08-25T09:17:13.063Z,4.60
2022-08-25T09:20:18.562Z,4.10
2022-08-25T09:23:24.267Z,5.10
2022-08-25T09:26:25.273Z,4.80
2022-08-25T09:29:02.463Z,4.65
2022-08-25T09:31:37.939Z,5.03
2022-08-25T09:34:07.194Z,4.65
2022-08-25T09:36:37.461Z,4.53
2022-08-25T09:39:07.767Z,5.03
2022-08-25T09:41:51.527Z,5.15
2022-08-25T09:44:20.811Z,4.90
2022-08-25T09:47:08.275Z,4.97
2022-08-25T09:49:43.086Z,4.72
2022-08-25T09:52:30.806Z,4.68
2022-08-25T09:55:05.265Z,5.47
2022-08-25T09:57:44.866Z,4.68
2022-08-25T10:00:33.353Z,4.93
2022-08-25T10:03:29.224Z,4.63
2022-08-25T10:05:56.530Z,4.70
2022-08-25T10:08:39.493Z,4.80
2022-08-25T10:11:11.461Z,4.70
2022-08-25T10:13:39.973Z,5.05
2022-08-25T10:16:20.610Z,5.07
2022-08-25T10:19:08.002Z,4.88
2022-08-25T10:21:35.946Z,4.60
2022-08-25T10:24:03.315Z,4.90
2022-08-25T10:26:57.145Z,4.40
2022-08-25T10:29:50.753Z,4.60
2022-08-25T10:32:23.399Z,4.97
2022-08-25T10:34:54.452Z,4.90
2022-08-25T10:37:46.679Z,5.45
2022-08-25T10:40:59.890Z,4.32
2022-08-25T10:43:35.085Z,4.80
2022-08-25T10:46:31.331Z,5.30
2022-08-25T10:49:12.696Z,4.60
2022-08-25T10:51:47.189Z,4.15
2022-08-25T10:54:28.183Z,4.60
2022-08-25T10:57:03.470Z,4.68
2022-08-25T10:59:47.071Z,4.30
2022-08-25T11:02:47.577Z,4.22
2022-08-25T11:05:28.421Z,4.32
2022-08-25T11:08:15.727Z,5.47
2022-08-25T11:10:45.187Z,4.40
2022-08-25T11:13:31.531Z,4.25
2022-08-25T11:16:19.442Z,4.30
2022-08-25T11:19:06.809Z,4.38
2022-08-25T11:21:53.524Z,4.78
2022-08-25T11:24:29.978Z,3.85
2022-08-25T11:26:56.996Z,4.55
2022-08-25T11:29:29.359Z,4.38
2022-08-25T11:31:58.832Z,4.07
2022-08-25T11:34:25.540Z,5.05
2022-08-25T11:36:57.885Z,4.13
2022-08-25T11:39:52.216Z,4.15
2022-08-25T11:42:21.693Z,3.90
2022-08-25T11:44:59.355Z,3.95
2022-08-25T11:47:34.862Z,3.90
2022-08-25T11:50:25.857Z,3.88
2022-08-25T11:53:16.263Z,3.50
2022-08-25T11:55:43.254Z,3.70
2022-08-25T11:58:28.155Z,4.10
2022-08-25T12:00:58.326Z,3.92
2022-08-25T12:03:31.949Z,4.40
2022-08-25T12:06:25.215Z,4.60
2022-08-25T12:09:00.944Z,4.20
2022-08-25T12:11:42.662Z,3.58
2022-08-25T12:14:21.626Z,4.28
2022-08-25T12:16:51.580Z,3.40
2022-08-25T12:19:48.483Z,3.75
2022-08-25T12:22:15.704Z,3.20
2022-08-25T12:24:47.755Z,4.00
2022-08-25T12:27:39.898Z,3.05
2022-08-25T12:30:46.118Z,4.45
2022-08-25T12:33:41.128Z,3.55
2022-08-25T12:36:08.152Z,4.25
2022-08-25T12:38:50.945Z,4.50
2022-08-25T12:41:27.118Z,3.35
2022-08-25T12:44:15.717Z,3.78
2022-08-25T12:46:43.666Z,3.58
2022-08-25T12:49:30.739Z,3.22
2022-08-25T12:52:10.834Z,3.03
2022-08-25T12:54:48.149Z,3.17
2022-08-25T12:57:40.848Z,3.33
2022-08-25T13:00:19.219Z,3.28
2022-08-25T13:03:04.326Z,3.50
2022-08-25T13:06:00.291Z,3.30
2022-08-25T13:08:46.694Z,3.58
2022-08-25T13:11:32.124Z,3.45
2022-08-25T13:13:58.683Z,4.07
2022-08-25T13:16:29.313Z,3.45
2022-08-25T13:18:57.269Z,3.33
2022-08-25T13:21:27.733Z,3.75
2022-08-25T13:24:04.611Z,3.72
2022-08-25T13:26:33.575Z,4.57
2022-08-25T13:29:17.811Z,3.88
2022-08-25T13:31:53.504Z,3.50
2022-08-25T13:34:35.064Z,3.53
2022-08-25T13:37:09.466Z,3.78
2022-08-25T13:42:23.997Z,3.47
2022-08-25T13:44:55.588Z,3.63
2022-08-25T13:47:45.148Z,3.83
2022-08-25T13:50:27.597Z,3.63
2022-08-25T13:53:01.073Z,3.70
2022-08-25T13:58:24.417Z,2.60
2022-08-25T14:01:00.749Z,4.05
2022-08-25T14:03:36.427Z,3.78
2022-08-25T14:06:10.108Z,4.07
2022-08-25T14:08:38.952Z,3.42
2022-08-25T14:11:27.397Z,3.20
2022-08-25T14:14:05.492Z,3.47
2022-08-25T14:16:33.410Z,3.72
2022-08-25T14:19:00.262Z,3.30
2022-08-25T14:21:28.523Z,4.13
2022-08-25T14:23:55.364Z,3.65
2022-08-25T14:26:22.103Z,4.00
2022-08-25T14:28:48.821Z,3.80
2022-08-25T14:31:18.112Z,3.55
2022-08-25T14:34:00.691Z,3.40
2022-08-25T14:36:29.185Z,3.28
2022-08-25T14:38:56.383Z,3.22
2022-08-25T14:41:23.910Z,3.38
2022-08-25T14:43:50.789Z,3.05
2022-08-25T14:46:32.848Z,2.75
2022-08-25T14:49:03.797Z,2.67
2022-08-25T14:51:30.698Z,2.60
2022-08-25T14:54:00.880Z,3.10
2022-08-25T14:56:27.649Z,2.95
2022-08-25T14:58:56.049Z,3.17
2022-08-25T15:01:28.467Z,3.13
2022-08-25T15:04:02.085Z,2.78
2022-08-25T15:06:28.841Z,2.35
2022-08-25T15:08:56.478Z,3.80
2022-08-25T15:11:23.366Z,3.45
2022-08-25T15:13:50.054Z,3.78
2022-08-25T15:16:34.043Z,3.75
2022-08-25T15:19:03.677Z,3.83
2022-08-25T15:21:34.761Z,3.13
2022-08-25T15:24:03.755Z,3.00
2022-08-25T15:26:31.389Z,3.65
2022-08-25T15:28:58.880Z,3.78
2022-08-25T15:31:25.531Z,3.78
2022-08-25T15:33:53.462Z,3.95
2022-08-25T15:36:23.091Z,3.67
2022-08-25T15:38:51.287Z,3.20
2022-08-25T15:41:18.028Z,3.88
2022-08-25T15:43:44.748Z,3.50
2022-08-25T15:46:11.914Z,3.60
2022-08-25T15:48:38.665Z,4.03
2022-08-25T15:51:05.708Z,3.70
2022-08-25T15:53:32.382Z,3.72
2022-08-25T15:56:00.603Z,3.22
2022-08-25T15:58:33.277Z,3.08
2022-08-25T16:00:59.922Z,3.80
2022-08-25T16:03:26.567Z,3.45
2022-08-25T16:05:53.156Z,3.55
2022-08-25T16:08:20.248Z,3.35
2022-08-25T16:10:47.149Z,3.60
2022-08-25T16:13:13.892Z,3.90
2022-08-25T16:15:40.884Z,3.85
2022-08-25T16:18:07.649Z,3.50
2022-08-25T16:20:34.868Z,3.78
2022-08-25T16:23:01.626Z,3.30
2022-08-25T16:25:30.841Z,4.30
2022-08-25T16:27:57.456Z,3.88
2022-08-25T16:30:24.092Z,4.07
2022-08-25T16:32:50.844Z,3.75
2022-08-25T16:35:18.265Z,3.33
2022-08-25T16:37:44.902Z,3.10
2022-08-25T16:40:11.929Z,3.65
2022-08-25T16:42:41.410Z,3.35
2022-08-25T16:45:08.237Z,3.80
2022-08-25T16:47:38.119Z,3.83
2022-08-25T16:50:06.062Z,3.53
2022-08-25T16:52:32.962Z,3.63
2022-08-25T16:54:59.698Z,3.80
2022-08-25T16:57:26.544Z,3.22
2022-08-25T16:59:53.177Z,4.05
2022-08-25T17:02:21.656Z,3.88
2022-08-25T17:04:48.894Z,3.88
2022-08-25T17:07:15.756Z,4.50
2022-08-25T17:09:50.421Z,4.07
2022-08-25T17:12:19.657Z,4.13
2022-08-25T17:14:46.318Z,4.00
2022-08-25T17:17:13.131Z,3.88
2022-08-25T17:19:45.403Z,4.00
2022-08-25T17:22:12.810Z,3.47
2022-08-25T17:24:41.416Z,4.20
2022-08-25T17:27:08.302Z,3.88
2022-08-25T17:29:35.005Z,3.15
2022-08-25T17:32:01.712Z,3.63
2022-08-25T17:34:28.488Z,3.70
2022-08-25T17:36:55.589Z,4.20
2022-08-25T17:39:22.834Z,4.50
2022-08-25T17:41:49.804Z,4.20
2022-08-25T17:44:16.696Z,3.85
2022-08-25T17:46:47.049Z,3.05
2022-08-25T17:49:15.493Z,3.25
2022-08-25T17:51:42.234Z,3.08
2022-08-25T17:54:09.109Z,3.00
2022-08-25T17:56:35.768Z,4.30
2022-08-25T17:59:02.481Z,3.42
2022-08-25T18:01:31.107Z,3.67
2022-08-25T18:03:58.562Z,3.88
2022-08-25T18:06:26.001Z,3.53
2022-08-25T18:08:56.384Z,2.88
2022-08-25T18:11:25.922Z,4.72
2022-08-25T18:13:52.954Z,3.17
2022-08-25T18:16:19.803Z,3.65
2022-08-25T18:18:46.638Z,3.88
2022-08-25T18:21:14.742Z,3.90
2022-08-25T18:23:42.382Z,3.28
2022-08-25T18:26:09.764Z,3.83
2022-08-25T18:28:40.067Z,4.15
2022-08-25T18:31:10.478Z,3.42
2022-08-25T18:33:37.535Z,4.03
2022-08-25T18:36:04.271Z,4.05
2022-08-25T18:38:30.927Z,4.18
2022-08-25T18:41:03.538Z,3.88
2022-08-25T18:43:31.237Z,3.83
2022-08-25T18:46:00.969Z,3.88
2022-08-25T18:48:28.453Z,4.25
2022-08-25T18:50:55.335Z,3.95
2022-08-25T18:53:30.464Z,3.78
2022-08-25T18:56:04.112Z,3.92
2022-08-25T18:58:30.726Z,3.95
2022-08-25T19:00:57.425Z,4.20
2022-08-25T19:03:24.162Z,3.83
2022-08-25T19:05:52.820Z,3.72
2022-08-25T19:08:24.222Z,3.83
2022-08-25T19:10:51.386Z,4.38
2022-08-25T19:13:18.060Z,4.00
2022-08-25T19:15:50.925Z,4.32
2022-08-25T19:18:18.417Z,4.10
2022-08-25T19:20:45.106Z,4.07
2022-08-25T19:23:12.051Z,3.92
2022-08-25T19:25:41.728Z,4.10
2022-08-25T19:28:11.956Z,4.07
2022-08-25T19:30:39.102Z,3.90
2022-08-25T19:33:16.687Z,4.60
2022-08-25T19:36:04.520Z,4.53
2022-08-25T19:38:33.775Z,3.88
2022-08-25T19:41:02.151Z,3.83
2022-08-25T19:43:28.912Z,4.05
2022-08-25T19:45:55.657Z,3.78
2022-08-25T19:48:23.496Z,3.78
2022-08-25T19:50:56.225Z,3.92
2022-08-25T19:53:23.074Z,4.28
2022-08-25T19:55:50.227Z,4.38
2022-08-25T19:58:17.876Z,3.97
2022-08-25T20:00:47.187Z,3.85
2022-08-25T20:03:16.253Z,3.42
2022-08-25T20:05:42.867Z,3.72
2022-08-25T20:08:09.534Z,3.80
2022-08-25T20:10:41.703Z,3.42
2022-08-25T20:13:09.288Z,4.13
2022-08-25T20:15:37.196Z,3.63
2022-08-25T20:18:06.113Z,4.13
2022-08-25T20:20:34.533Z,3.90
2022-08-25T20:23:01.724Z,4.05
2022-08-25T20:25:28.372Z,4.00
2022-08-25T20:28:03.825Z,3.67
2022-08-25T20:30:31.116Z,4.03
2022-08-25T20:32:57.923Z,4.10
2022-08-25T20:35:26.678Z,4.65
2022-08-25T20:37:53.874Z,4.50
2022-08-25T20:40:25.851Z,4.57
2022-08-25T20:42:53.045Z,4.28
2022-08-25T20:45:20.265Z,4.10
2022-08-25T20:47:46.937Z,4.28
2022-08-25T20:50:13.589Z,4.65
2022-08-25T20:52:43.797Z,4.40
2022-08-25T20:55:10.754Z,4.50
2022-08-25T20:57:38.292Z,4.20
2022-08-25T21:00:05.900Z,4.32
2022-08-25T21:02:32.983Z,4.28
2022-08-25T21:05:01.158Z,4.43
2022-08-25T21:07:28.281Z,4.25
2022-08-25T21:09:54.924Z,4.72
2022-08-25T21:12:21.665Z,4.18
2022-08-25T21:14:48.377Z,4.22
2022-08-25T21:17:15.340Z,4.30
2022-08-25T21:19:46.027Z,4.45
2022-08-25T21:22:12.741Z,4.47
2022-08-25T21:24:39.469Z,4.63
2022-08-25T21:27:06.298Z,4.28
2022-08-25T21:29:33.108Z,3.78
2022-08-25T21:31:59.796Z,4.05
2022-08-25T21:34:28.807Z,4.18
2022-08-25T21:36:57.137Z,4.22
2022-08-25T21:39:24.456Z,4.68
2022-08-25T21:41:52.343Z,4.30
2022-08-25T21:44:20.796Z,4.57
2022-08-25T21:46:54.181Z,4.75
2022-08-25T21:49:21.798Z,4.68
2022-08-25T21:51:51.008Z,4.30
2022-08-25T21:54:26.156Z,4.63
2022-08-25T21:56:55.068Z,3.80
2022-08-25T21:59:23.141Z,3.22
2022-08-25T22:01:50.598Z,3.97
2022-08-25T22:04:17.618Z,3.92
2022-08-25T22:06:45.384Z,4.10
2022-08-25T22:09:13.405Z,3.75
2022-08-25T22:11:44.113Z,4.00
2022-08-25T22:14:11.512Z,4.22
2022-08-25T22:16:38.413Z,3.95
2022-08-25T22:19:05.300Z,4.28
2022-08-25T22:21:32.016Z,3.90
2022-08-25T22:23:59.388Z,3.95
2022-08-25T22:26:27.375Z,3.85
2022-08-25T22:28:54.645Z,4.13
2022-08-25T22:31:21.678Z,4.10
2022-08-25T22:33:48.819Z,4.07
2022-08-25T22:36:23.165Z,3.88
2022-08-25T22:38:52.540Z,4.00
2022-08-25T22:41:21.560Z,3.70
2022-08-25T22:43:49.456Z,3.80
2022-08-25T22:46:19.095Z,4.03
2022-08-25T22:48:46.268Z,4.30
2022-08-25T22:51:14.775Z,4.10
2022-08-25T22:53:41.825Z,4.15
2022-08-25T22:56:09.211Z,4.10
2022-08-25T22:58:36.998Z,4.05
2022-08-25T23:01:04.016Z,4.20
2022-08-25T23:03:31.160Z,4.13
2022-08-25T23:05:57.852Z,3.92
2022-08-25T23:08:39.103Z,4.63
2022-08-25T23:11:08.148Z,4.10
2022-08-25T23:13:34.825Z,4.40
2022-08-25T23:16:06.291Z,4.28
2022-08-25T23:18:33.048Z,4.18
2022-08-25T23:20:59.736Z,3.88
2022-08-25T23:23:28.772Z,3.83
2022-08-25T23:25:55.552Z,4.30
2022-08-25T23:28:23.396Z,3.95
2022-08-25T23:30:57.070Z,3.97
2022-08-25T23:35:59.634Z,3.55
2022-08-25T23:38:26.576Z,3.38
2022-08-25T23:40:54.832Z,2.83
2022-08-25T23:43:21.501Z,3.10
2022-08-25T23:45:48.276Z,3.97
2022-08-25T23:48:15.046Z,3.63
2022-08-25T23:50:46.486Z,4.18
2022-08-25T23:53:13.896Z,4.18
2022-08-25T23:55:53.112Z,3.85
2022-08-25T23:58:20.780Z,4.32
